createdAt,value
2019-06-15T00:00:49.221Z,4.37
2019-06-15T00:01:54.010Z,5.70
2019-06-15T00:02:58.039Z,4.97
2019-06-15T00:04:02.914Z,5.10
2019-06-15T00:05:08.079Z,4.80
2019-06-15T00:06:11.978Z,4.93
2019-06-15T00:07:16.039Z,4.53
2019-06-15T00:08:21.590Z,4.50
2019-06-15T00:09:26.019Z,5.10
2019-06-15T00:10:30.820Z,4.77
2019-06-15T00:11:36.821Z,4.53
2019-06-15T00:12:40.627Z,4.90
2019-06-15T00:13:45.138Z,5.00
2019-06-15T00:14:48.991Z,4.47
2019-06-15T00:15:54.313Z,4.60
2019-06-15T00:16:58.318Z,5.00
2019-06-15T00:18:04.138Z,3.93
2019-06-15T00:19:08.428Z,5.10
2019-06-15T00:20:12.885Z,4.90
2019-06-15T00:21:17.049Z,5.20
2019-06-15T00:22:20.990Z,5.00
2019-06-15T00:23:25.877Z,4.90
2019-06-15T00:24:35.421Z,4.57
2019-06-15T00:25:35.250Z,5.03
2019-06-15T00:26:39.764Z,4.83
2019-06-15T00:27:44.010Z,5.07
2019-06-15T00:28:47.992Z,5.20
2019-06-15T00:29:51.795Z,5.00
2019-06-15T00:30:55.776Z,5.37
2019-06-15T00:31:59.555Z,5.30
2019-06-15T00:33:03.500Z,4.73
2019-06-15T00:34:07.308Z,4.93
2019-06-15T00:35:11.464Z,5.60
2019-06-15T00:36:15.247Z,5.13
2019-06-15T00:37:19.207Z,5.60
2019-06-15T00:38:22.984Z,4.73
2019-06-15T00:39:26.994Z,4.63
2019-06-15T00:40:30.776Z,5.37
2019-06-15T00:41:34.723Z,4.50
2019-06-15T00:42:38.536Z,4.67
2019-06-15T00:43:42.895Z,5.03
2019-06-15T00:44:46.659Z,4.93
2019-06-15T00:45:50.798Z,5.77
2019-06-15T00:46:54.758Z,4.90
2019-06-15T00:47:58.756Z,5.57
2019-06-15T00:49:02.542Z,5.23
2019-06-15T00:50:07.152Z,5.37
2019-06-15T00:51:11.317Z,5.13
2019-06-15T00:52:15.303Z,5.73
2019-06-15T00:53:19.259Z,5.07
2019-06-15T00:54:23.428Z,4.60
2019-06-15T00:55:27.189Z,5.20
2019-06-15T00:56:31.174Z,4.90
2019-06-15T00:57:36.218Z,4.90
2019-06-15T00:58:40.277Z,4.53
2019-06-15T00:59:44.192Z,5.00
2019-06-15T01:00:48.225Z,5.23
2019-06-15T01:01:52.027Z,5.30
2019-06-15T01:02:56.038Z,5.10
2019-06-15T01:03:59.842Z,5.70
2019-06-15T01:05:05.449Z,4.93
2019-06-15T01:06:09.483Z,4.67
2019-06-15T01:07:13.517Z,5.33
2019-06-15T01:08:17.632Z,5.40
2019-06-15T01:09:21.603Z,5.43
2019-06-15T01:10:25.407Z,4.70
2019-06-15T01:11:29.369Z,5.30
2019-06-15T01:12:33.135Z,4.60
2019-06-15T01:13:37.140Z,5.53
2019-06-15T01:14:40.898Z,5.47
2019-06-15T01:15:44.855Z,5.43
2019-06-15T01:16:48.635Z,5.10
2019-06-15T01:17:52.701Z,5.07
2019-06-15T01:18:56.487Z,5.87
2019-06-15T01:20:00.451Z,5.17
2019-06-15T01:21:05.259Z,6.10
2019-06-15T01:22:10.127Z,5.40
2019-06-15T01:23:13.905Z,5.37
2019-06-15T01:24:17.935Z,4.67
2019-06-15T01:25:21.995Z,4.80
2019-06-15T01:26:25.972Z,5.00
2019-06-15T01:27:29.757Z,5.13
2019-06-15T01:28:33.727Z,5.50
2019-06-15T01:29:37.552Z,5.50
2019-06-15T01:30:41.500Z,5.00
2019-06-15T01:31:45.291Z,4.90
2019-06-15T01:32:49.338Z,4.90
2019-06-15T01:33:53.158Z,4.80
2019-06-15T01:34:57.113Z,4.87
2019-06-15T01:36:00.876Z,4.80
2019-06-15T01:37:05.002Z,5.57
2019-06-15T01:38:08.776Z,5.17
2019-06-15T01:39:12.776Z,5.03
2019-06-15T01:40:16.976Z,5.03
2019-06-15T01:41:20.973Z,4.90
2019-06-15T01:42:24.730Z,4.77
2019-06-15T01:43:28.679Z,4.20
2019-06-15T01:44:32.482Z,5.40
2019-06-15T01:45:36.434Z,4.73
2019-06-15T01:46:40.212Z,4.47
2019-06-15T01:47:44.152Z,4.67
2019-06-15T01:48:47.950Z,5.60
2019-06-15T01:49:52.806Z,5.57
2019-06-15T01:50:56.552Z,4.47
2019-06-15T01:52:00.594Z,4.60
2019-06-15T01:53:04.462Z,4.53
2019-06-15T01:54:08.420Z,4.70
2019-06-15T01:55:20.378Z,4.90
2019-06-15T01:56:17.824Z,5.80
2019-06-15T01:57:21.586Z,5.70
2019-06-15T01:58:25.549Z,5.13
2019-06-15T01:59:29.318Z,5.23
2019-06-15T02:00:33.642Z,5.40
2019-06-15T02:01:37.454Z,4.90
2019-06-15T02:02:41.411Z,5.47
2019-06-15T02:03:45.203Z,5.00
2019-06-15T02:04:49.170Z,5.30
2019-06-15T02:05:53.023Z,4.73
2019-06-15T02:06:57.065Z,5.20
2019-06-15T02:08:00.854Z,5.47
2019-06-15T02:09:07.916Z,4.40
2019-06-15T02:10:13.494Z,4.80
2019-06-15T02:11:17.474Z,5.70
2019-06-15T02:12:21.708Z,5.63
2019-06-15T02:13:25.663Z,4.60
2019-06-15T02:14:29.431Z,5.23
2019-06-15T02:15:33.392Z,5.20
2019-06-15T02:16:37.198Z,5.40
2019-06-15T02:17:41.155Z,4.70
2019-06-15T02:18:44.962Z,5.67
2019-06-15T02:19:48.920Z,4.70
2019-06-15T02:20:52.693Z,4.97
2019-06-15T02:21:56.692Z,4.83
2019-06-15T02:23:00.519Z,4.90
2019-06-15T02:24:04.839Z,5.23
2019-06-15T02:25:09.454Z,4.80
2019-06-15T02:26:13.459Z,5.10
2019-06-15T02:27:17.267Z,4.83
2019-06-15T02:28:21.222Z,5.17
2019-06-15T02:29:24.997Z,4.73
2019-06-15T02:30:31.704Z,5.17
2019-06-15T02:31:35.463Z,4.90
2019-06-15T02:32:39.460Z,4.80
2019-06-15T02:33:43.228Z,5.03
2019-06-15T02:34:47.182Z,4.57
2019-06-15T02:35:50.944Z,4.80
2019-06-15T02:36:54.905Z,4.90
2019-06-15T02:37:59.053Z,5.17
2019-06-15T02:39:03.040Z,4.80
2019-06-15T02:40:07.146Z,5.50
2019-06-15T02:41:11.109Z,5.47
2019-06-15T02:42:14.908Z,5.13
2019-06-15T02:43:18.941Z,5.13
2019-06-15T02:44:22.800Z,5.10
2019-06-15T02:45:26.830Z,5.37
2019-06-15T02:46:30.591Z,4.80
2019-06-15T02:47:34.608Z,5.43
2019-06-15T02:48:38.360Z,4.40
2019-06-15T02:49:42.311Z,4.80
2019-06-15T02:50:46.534Z,5.13
2019-06-15T02:51:51.420Z,5.07
2019-06-15T02:52:55.232Z,5.13
2019-06-15T02:53:59.189Z,5.80
2019-06-15T02:55:03.416Z,5.47
2019-06-15T02:56:07.343Z,4.50
2019-06-15T02:57:11.149Z,5.27
2019-06-15T02:58:15.098Z,5.43
2019-06-15T02:59:18.877Z,5.40
2019-06-15T03:00:37.695Z,4.90
2019-06-15T03:01:41.510Z,6.17
2019-06-15T03:02:45.469Z,5.80
2019-06-15T03:03:49.340Z,5.47
2019-06-15T03:04:53.299Z,6.03
2019-06-15T03:05:57.335Z,5.70
2019-06-15T03:07:01.673Z,6.00
2019-06-15T03:08:05.776Z,5.23
2019-06-15T03:09:09.762Z,6.00
2019-06-15T03:10:13.884Z,6.10
2019-06-15T03:11:17.844Z,5.15
2019-06-15T03:12:21.667Z,6.13
2019-06-15T03:13:25.902Z,5.33
2019-06-15T03:14:29.707Z,6.03
2019-06-15T03:15:33.734Z,6.72
2019-06-15T03:16:37.520Z,5.70
2019-06-15T03:17:41.516Z,5.95
2019-06-15T03:18:45.399Z,5.42
2019-06-15T03:19:49.365Z,5.62
2019-06-15T03:20:53.174Z,5.70
2019-06-15T03:21:57.166Z,5.33
2019-06-15T03:23:00.941Z,5.90
2019-06-15T03:24:05.205Z,5.60
2019-06-15T03:25:12.389Z,5.53
2019-06-15T03:26:16.371Z,5.23
2019-06-15T03:27:20.151Z,6.10
2019-06-15T03:28:24.099Z,5.63
2019-06-15T03:29:27.891Z,5.60
2019-06-15T03:30:31.871Z,5.50
2019-06-15T03:31:35.643Z,5.73
2019-06-15T03:32:39.601Z,5.50
2019-06-15T03:33:43.409Z,4.83
2019-06-15T03:34:47.372Z,5.07
2019-06-15T03:35:51.139Z,6.30
2019-06-15T03:36:55.096Z,5.77
2019-06-15T03:37:58.984Z,6.13
2019-06-15T03:39:03.015Z,6.50
2019-06-15T03:40:07.728Z,6.47
2019-06-15T03:41:11.704Z,5.97
2019-06-15T03:42:15.472Z,7.20
2019-06-15T03:43:19.471Z,6.47
2019-06-15T03:44:23.240Z,6.70
2019-06-15T03:45:27.187Z,5.93
2019-06-15T03:46:30.964Z,6.47
2019-06-15T03:47:34.917Z,5.90
2019-06-15T03:48:38.727Z,6.70
2019-06-15T03:49:43.193Z,7.00
2019-06-15T03:50:46.964Z,6.40
2019-06-15T03:51:50.924Z,6.17
2019-06-15T03:52:55.120Z,7.00
2019-06-15T03:53:59.151Z,6.57
2019-06-15T03:55:02.902Z,6.10
2019-06-15T03:56:20.532Z,7.10
2019-06-15T03:57:12.341Z,6.47
2019-06-15T03:58:16.298Z,6.63
2019-06-15T03:59:20.218Z,6.40
2019-06-15T04:00:33.226Z,6.30
2019-06-15T04:01:40.071Z,7.00
2019-06-15T04:02:44.023Z,6.10
2019-06-15T04:03:47.845Z,6.60
2019-06-15T04:04:52.464Z,6.50
2019-06-15T04:05:56.263Z,6.10
2019-06-15T04:07:00.230Z,7.43
2019-06-15T04:08:04.009Z,6.90
2019-06-15T04:09:08.606Z,5.60
2019-06-15T04:10:12.645Z,6.30
2019-06-15T04:11:16.615Z,7.00
2019-06-15T04:12:20.411Z,7.27
2019-06-15T04:13:24.368Z,6.60
2019-06-15T04:14:28.184Z,6.00
2019-06-15T04:15:32.124Z,6.70
2019-06-15T04:16:36.373Z,7.07
2019-06-15T04:17:40.328Z,6.23
2019-06-15T04:18:44.100Z,6.57
2019-06-15T04:19:48.098Z,6.67
2019-06-15T04:20:51.859Z,6.47
2019-06-15T04:21:55.808Z,7.00
2019-06-15T04:22:59.576Z,6.40
2019-06-15T04:24:03.548Z,6.53
2019-06-15T04:25:07.478Z,7.33
2019-06-15T04:26:11.458Z,7.30
2019-06-15T04:27:15.227Z,7.07
2019-06-15T04:28:19.172Z,6.70
2019-06-15T04:29:22.945Z,7.10
2019-06-15T04:30:26.939Z,6.90
2019-06-15T04:31:30.708Z,6.93
2019-06-15T04:32:34.732Z,6.60
2019-06-15T04:33:38.538Z,7.33
2019-06-15T04:34:42.497Z,6.93
2019-06-15T04:35:46.296Z,7.30
2019-06-15T04:36:50.300Z,7.40
2019-06-15T04:37:54.121Z,6.90
2019-06-15T04:38:58.059Z,7.50
2019-06-15T04:40:01.823Z,6.40
2019-06-15T04:41:05.864Z,7.10
2019-06-15T04:42:09.638Z,7.07
2019-06-15T04:43:13.583Z,6.83
2019-06-15T04:44:17.398Z,6.57
2019-06-15T04:45:21.349Z,6.87
2019-06-15T04:46:25.131Z,7.80
2019-06-15T04:47:29.091Z,7.47
2019-06-15T04:48:32.891Z,7.47
2019-06-15T04:49:36.851Z,7.90
2019-06-15T04:50:40.614Z,7.70
2019-06-15T04:51:44.567Z,7.10
2019-06-15T04:52:48.330Z,6.80
2019-06-15T04:53:52.332Z,7.00
2019-06-15T04:54:56.095Z,7.43
2019-06-15T04:56:00.051Z,7.13
2019-06-15T04:57:03.829Z,7.60
2019-06-15T04:58:07.780Z,8.43
2019-06-15T04:59:11.582Z,7.10
2019-06-15T05:00:15.682Z,7.23
2019-06-15T05:01:19.474Z,6.97
2019-06-15T05:02:23.431Z,6.80
2019-06-15T05:03:27.206Z,6.87
2019-06-15T05:04:31.212Z,7.53
2019-06-15T05:05:34.992Z,7.03
2019-06-15T05:06:38.943Z,7.77
2019-06-15T05:07:42.775Z,6.93
2019-06-15T05:08:46.740Z,7.07
2019-06-15T05:09:50.540Z,6.40
2019-06-15T05:10:59.687Z,6.27
2019-06-15T05:11:59.951Z,6.77
2019-06-15T05:13:03.963Z,6.40
2019-06-15T05:14:07.728Z,6.17
2019-06-15T05:15:11.859Z,6.20
2019-06-15T05:16:15.632Z,7.23
2019-06-15T05:17:19.628Z,6.70
2019-06-15T05:18:23.415Z,5.83
2019-06-15T05:19:27.368Z,6.50
2019-06-15T05:20:31.240Z,6.80
2019-06-15T05:21:35.191Z,6.43
2019-06-15T05:22:38.959Z,6.30
2019-06-15T05:23:42.945Z,5.67
2019-06-15T05:24:46.714Z,6.00
2019-06-15T05:25:50.668Z,6.07
2019-06-15T05:27:05.855Z,6.03
2019-06-15T05:28:00.080Z,6.37
2019-06-15T05:29:04.323Z,6.77
2019-06-15T05:30:09.051Z,5.90
2019-06-15T05:31:12.853Z,5.80
2019-06-15T05:32:16.815Z,6.43
2019-06-15T05:33:20.594Z,5.60
2019-06-15T05:34:24.581Z,6.37
2019-06-15T05:35:28.388Z,5.83
2019-06-15T05:36:32.417Z,5.90
2019-06-15T05:37:36.218Z,5.20
2019-06-15T05:38:40.177Z,6.57
2019-06-15T05:39:43.960Z,7.07
2019-06-15T05:40:47.920Z,6.60
2019-06-15T05:41:51.725Z,6.53
2019-06-15T05:42:55.683Z,6.17
2019-06-15T05:43:59.495Z,5.57
2019-06-15T05:45:04.018Z,6.63
2019-06-15T05:46:07.783Z,5.50
2019-06-15T05:47:11.793Z,6.53
2019-06-15T05:48:15.538Z,6.57
2019-06-15T05:49:19.488Z,5.47
2019-06-15T05:50:23.391Z,6.20
2019-06-15T05:51:27.332Z,6.20
2019-06-15T05:52:31.103Z,6.07
2019-06-15T05:53:35.136Z,6.63
2019-06-15T05:54:38.935Z,4.87
2019-06-15T05:55:43.204Z,6.20
2019-06-15T05:56:46.975Z,5.87
2019-06-15T05:57:50.927Z,5.53
2019-06-15T05:58:54.686Z,6.23
2019-06-15T05:59:58.651Z,6.50
2019-06-15T06:01:02.497Z,6.00
2019-06-15T06:02:06.800Z,6.10
2019-06-15T06:03:10.558Z,6.43
2019-06-15T06:04:14.564Z,12.97
2019-06-15T06:05:18.498Z,6.20
2019-06-15T06:06:22.456Z,6.30
2019-06-15T06:07:26.232Z,6.53
2019-06-15T06:08:30.219Z,6.17
2019-06-15T06:09:33.992Z,6.40
2019-06-15T06:10:37.935Z,6.33
2019-06-15T06:11:41.743Z,6.43
2019-06-15T06:12:45.702Z,6.40
2019-06-15T06:13:49.481Z,6.10
2019-06-15T06:14:53.435Z,6.07
2019-06-15T06:15:57.204Z,5.77
2019-06-15T06:17:01.216Z,6.03
2019-06-15T06:18:05.052Z,6.27
2019-06-15T06:19:09.017Z,5.50
2019-06-15T06:20:13.124Z,6.00
2019-06-15T06:21:17.107Z,6.13
2019-06-15T06:22:20.875Z,5.53
2019-06-15T06:23:24.848Z,6.53
2019-06-15T06:24:28.625Z,5.70
2019-06-15T06:25:32.660Z,7.20
2019-06-15T06:26:36.487Z,6.60
2019-06-15T06:27:40.452Z,6.60
2019-06-15T06:28:56.494Z,6.87
2019-06-15T06:29:49.811Z,6.90
2019-06-15T06:30:53.582Z,7.00
2019-06-15T06:31:57.576Z,7.47
2019-06-15T06:33:01.378Z,6.60
2019-06-15T06:34:05.375Z,7.07
2019-06-15T06:35:09.624Z,7.37
2019-06-15T06:36:13.584Z,7.23
2019-06-15T06:37:17.342Z,6.60
2019-06-15T06:38:21.344Z,6.70
2019-06-15T06:39:25.108Z,6.57
2019-06-15T06:40:29.108Z,6.80
2019-06-15T06:41:32.880Z,6.80
2019-06-15T06:42:36.869Z,8.00
2019-06-15T06:43:41.029Z,6.60
2019-06-15T06:44:45.020Z,7.43
2019-06-15T06:45:48.862Z,6.77
2019-06-15T06:46:52.868Z,6.90
2019-06-15T06:47:56.597Z,6.77
2019-06-15T06:49:00.550Z,6.40
2019-06-15T06:50:07.376Z,7.80
2019-06-15T06:51:11.375Z,7.20
2019-06-15T06:52:15.172Z,7.50
2019-06-15T06:53:19.127Z,8.47
2019-06-15T06:54:22.903Z,6.90
2019-06-15T06:55:26.923Z,8.07
2019-06-15T06:56:30.760Z,7.70
2019-06-15T06:57:34.740Z,8.13
2019-06-15T06:58:38.516Z,7.10
2019-06-15T06:59:42.515Z,7.47
2019-06-15T07:00:46.284Z,7.97
2019-06-15T07:01:50.254Z,7.43
2019-06-15T07:02:54.083Z,6.67
2019-06-15T07:03:58.064Z,6.90
2019-06-15T07:05:01.870Z,7.17
2019-06-15T07:06:06.163Z,7.80
2019-06-15T07:07:09.938Z,7.93
2019-06-15T07:08:13.952Z,7.67
2019-06-15T07:09:17.739Z,7.57
2019-06-15T07:10:21.700Z,7.93
2019-06-15T07:11:25.540Z,7.67
2019-06-15T07:12:29.514Z,7.30
2019-06-15T07:13:33.320Z,8.30
2019-06-15T07:14:37.284Z,7.20
2019-06-15T07:15:41.119Z,7.73
2019-06-15T07:16:45.075Z,8.13
2019-06-15T07:17:48.849Z,7.90
2019-06-15T07:18:52.813Z,7.60
2019-06-15T07:19:56.611Z,7.70
2019-06-15T07:21:00.580Z,7.43
2019-06-15T07:22:04.470Z,7.53
2019-06-15T07:23:08.444Z,8.30
2019-06-15T07:24:12.248Z,7.80
2019-06-15T07:25:16.264Z,7.80
2019-06-15T07:26:20.044Z,7.50
2019-06-15T07:27:24.034Z,7.73
2019-06-15T07:28:27.808Z,8.50
2019-06-15T07:29:31.766Z,7.50
2019-06-15T07:30:35.655Z,7.83
2019-06-15T07:31:43.087Z,8.10
2019-06-15T07:32:46.905Z,7.90
2019-06-15T07:33:50.876Z,8.70
2019-06-15T07:34:54.751Z,7.77
2019-06-15T07:35:58.711Z,8.70
2019-06-15T07:37:02.486Z,7.67
2019-06-15T07:38:06.499Z,8.00
2019-06-15T07:39:10.307Z,8.97
2019-06-15T07:40:14.554Z,8.43
2019-06-15T07:41:18.344Z,10.10
2019-06-15T07:42:22.304Z,7.90
2019-06-15T07:43:26.352Z,8.97
2019-06-15T07:44:30.393Z,8.53
2019-06-15T07:45:34.364Z,8.53
2019-06-15T07:46:38.429Z,8.10
2019-06-15T07:47:42.195Z,7.70
2019-06-15T07:48:46.364Z,8.43
2019-06-15T07:49:50.135Z,7.80
2019-06-15T07:50:54.126Z,7.80
2019-06-15T07:51:58.268Z,7.70
2019-06-15T07:53:02.231Z,7.80
2019-06-15T07:54:05.999Z,7.33
2019-06-15T07:55:10.438Z,7.50
2019-06-15T07:56:14.231Z,7.57
2019-06-15T07:57:18.312Z,8.13
2019-06-15T07:58:24.918Z,7.03
2019-06-15T07:59:27.705Z,7.20
2019-06-15T08:00:31.503Z,7.30
2019-06-15T08:01:35.467Z,6.80
2019-06-15T08:02:39.403Z,6.90
2019-06-15T08:03:43.527Z,7.30
2019-06-15T08:04:47.364Z,6.47
2019-06-15T08:05:51.331Z,5.77
2019-06-15T08:06:55.133Z,5.93
2019-06-15T08:07:59.095Z,5.60
2019-06-15T08:09:02.853Z,5.90
2019-06-15T08:10:08.644Z,5.37
2019-06-15T08:11:12.448Z,5.17
2019-06-15T08:12:16.409Z,4.80
2019-06-15T08:13:20.198Z,4.90
2019-06-15T08:14:24.157Z,5.80
2019-06-15T08:15:28.060Z,4.50
2019-06-15T08:16:32.160Z,5.40
2019-06-15T08:17:36.274Z,4.47
2019-06-15T08:18:40.274Z,5.20
2019-06-15T08:19:43.991Z,5.33
2019-06-15T08:20:48.090Z,4.20
2019-06-15T08:21:51.958Z,4.30
2019-06-15T08:22:55.918Z,4.73
2019-06-15T08:23:59.681Z,5.10
2019-06-15T08:25:04.667Z,4.53
2019-06-15T08:26:08.460Z,4.40
2019-06-15T08:27:12.404Z,4.70
2019-06-15T08:28:16.255Z,4.50
2019-06-15T08:29:20.251Z,4.80
2019-06-15T08:30:32.612Z,4.07
2019-06-15T08:31:36.576Z,5.20
2019-06-15T08:32:40.399Z,4.80
2019-06-15T08:33:44.363Z,4.80
2019-06-15T08:34:48.155Z,4.80
2019-06-15T08:35:52.127Z,4.57
2019-06-15T08:36:55.896Z,4.60
2019-06-15T08:37:59.884Z,4.70
2019-06-15T08:39:05.284Z,4.63
2019-06-15T08:40:10.192Z,4.73
2019-06-15T08:41:13.956Z,4.80
2019-06-15T08:42:17.968Z,4.77
2019-06-15T08:43:21.724Z,4.33
2019-06-15T08:44:25.700Z,4.03
2019-06-15T08:45:29.485Z,4.03
2019-06-15T08:46:33.457Z,4.40
2019-06-15T08:47:37.268Z,4.67
2019-06-15T08:48:41.213Z,4.50
2019-06-15T08:49:44.989Z,5.27
2019-06-15T08:50:49.000Z,4.77
2019-06-15T08:51:52.883Z,4.57
2019-06-15T08:52:56.838Z,4.40
2019-06-15T08:54:00.608Z,4.70
2019-06-15T08:55:06.158Z,4.47
2019-06-15T08:56:09.887Z,5.07
2019-06-15T08:57:13.902Z,4.70
2019-06-15T08:58:17.668Z,4.77
2019-06-15T08:59:21.678Z,4.70
2019-06-15T09:00:25.585Z,4.83
2019-06-15T09:01:29.684Z,5.40
2019-06-15T09:02:33.600Z,5.10
2019-06-15T09:03:37.621Z,4.27
2019-06-15T09:04:41.369Z,4.50
2019-06-15T09:05:45.353Z,4.97
2019-06-15T09:06:49.095Z,4.00
2019-06-15T09:07:53.118Z,5.60
2019-06-15T09:08:56.914Z,4.83
2019-06-15T09:10:00.824Z,5.10
2019-06-15T09:11:04.594Z,5.00
2019-06-15T09:12:08.543Z,4.57
2019-06-15T09:13:12.335Z,5.37
2019-06-15T09:14:16.302Z,5.00
2019-06-15T09:15:28.937Z,5.70
2019-06-15T09:16:32.868Z,5.40
2019-06-15T09:17:36.630Z,6.53
2019-06-15T09:18:40.587Z,5.00
2019-06-15T09:19:44.362Z,4.93
2019-06-15T09:20:49.586Z,5.27
2019-06-15T09:21:53.353Z,5.20
2019-06-15T09:22:57.298Z,5.50
2019-06-15T09:24:01.122Z,5.27
2019-06-15T09:25:05.917Z,4.80
2019-06-15T09:26:09.705Z,5.63
2019-06-15T09:27:13.648Z,4.93
2019-06-15T09:28:17.418Z,4.47
2019-06-15T09:29:21.412Z,5.10
2019-06-15T09:30:25.196Z,4.77
2019-06-15T09:31:29.196Z,5.13
2019-06-15T09:32:32.968Z,6.10
2019-06-15T09:33:36.948Z,5.57
2019-06-15T09:34:40.709Z,5.40
2019-06-15T09:35:44.660Z,5.20
2019-06-15T09:36:48.460Z,4.90
2019-06-15T09:37:52.476Z,5.23
2019-06-15T09:38:56.202Z,5.50
2019-06-15T09:40:00.155Z,5.30
2019-06-15T09:41:04.325Z,5.73
2019-06-15T09:42:08.353Z,4.87
2019-06-15T09:43:12.221Z,5.10
2019-06-15T09:44:16.171Z,5.03
2019-06-15T09:45:20.392Z,6.00
2019-06-15T09:46:24.344Z,5.00
2019-06-15T09:47:28.130Z,5.20
2019-06-15T09:48:32.108Z,5.50
2019-06-15T09:49:35.858Z,5.00
2019-06-15T09:50:39.868Z,5.87
2019-06-15T09:51:43.665Z,5.07
2019-06-15T09:52:47.782Z,6.00
2019-06-15T09:53:51.500Z,5.60
2019-06-15T09:54:55.453Z,6.13
2019-06-15T09:55:59.259Z,5.37
2019-06-15T09:57:03.223Z,5.83
2019-06-15T09:58:07.060Z,5.93
2019-06-15T09:59:25.095Z,6.00
2019-06-15T10:00:17.010Z,6.60
2019-06-15T10:01:20.964Z,7.37
2019-06-15T10:02:24.743Z,7.53
2019-06-15T10:03:28.678Z,8.73
2019-06-15T10:04:32.564Z,8.20
2019-06-15T10:05:36.532Z,8.63
2019-06-15T10:06:40.351Z,9.33
2019-06-15T10:07:44.293Z,8.80
2019-06-15T10:08:48.065Z,8.30
2019-06-15T10:09:52.041Z,9.43
2019-06-15T10:10:55.901Z,8.20
2019-06-15T10:11:59.911Z,8.70
2019-06-15T10:13:03.676Z,8.50
2019-06-15T10:14:07.656Z,9.40
2019-06-15T10:15:12.876Z,9.20
2019-06-15T10:16:16.936Z,8.80
2019-06-15T10:17:20.703Z,8.53
2019-06-15T10:18:24.700Z,9.03
2019-06-15T10:19:28.485Z,9.37
2019-06-15T10:20:32.458Z,8.87
2019-06-15T10:21:36.300Z,9.10
2019-06-15T10:22:40.301Z,8.63
2019-06-15T10:23:44.061Z,8.90
2019-06-15T10:24:48.021Z,9.17
2019-06-15T10:25:54.174Z,8.73
2019-06-15T10:26:57.467Z,9.50
2019-06-15T10:28:01.237Z,9.00
2019-06-15T10:29:05.256Z,8.00
2019-06-15T10:30:09.895Z,8.67
2019-06-15T10:31:13.925Z,8.20
2019-06-15T10:32:17.790Z,8.70
2019-06-15T10:33:21.837Z,8.17
2019-06-15T10:34:25.616Z,8.40
2019-06-15T10:35:29.547Z,8.00
2019-06-15T10:36:33.330Z,7.20
2019-06-15T10:37:37.338Z,8.00
2019-06-15T10:38:41.102Z,7.97
2019-06-15T10:39:45.068Z,7.93
2019-06-15T10:40:48.838Z,7.50
2019-06-15T10:41:52.824Z,7.97
2019-06-15T10:42:56.622Z,7.00
2019-06-15T10:44:00.589Z,6.90
2019-06-15T10:45:06.633Z,7.90
2019-06-15T10:46:10.588Z,6.53
2019-06-15T10:47:14.434Z,6.60
2019-06-15T10:48:18.535Z,6.60
2019-06-15T10:49:22.300Z,5.90
2019-06-15T10:50:26.353Z,5.57
2019-06-15T10:51:30.129Z,5.50
2019-06-15T10:52:34.163Z,5.67
2019-06-15T10:53:37.989Z,5.13
2019-06-15T10:54:41.924Z,4.97
2019-06-15T10:55:45.740Z,5.00
2019-06-15T10:56:49.687Z,5.50
2019-06-15T10:57:53.515Z,5.17
2019-06-15T10:58:57.480Z,4.93
2019-06-15T11:00:01.287Z,5.53
2019-06-15T11:01:05.293Z,5.43
2019-06-15T11:02:09.430Z,5.47
2019-06-15T11:03:13.400Z,5.20
2019-06-15T11:04:17.167Z,5.57
2019-06-15T11:05:21.888Z,5.40
2019-06-15T11:06:25.660Z,5.43
2019-06-15T11:07:29.698Z,5.40
2019-06-15T11:08:33.485Z,5.73
2019-06-15T11:09:37.435Z,5.50
2019-06-15T11:10:47.048Z,5.50
2019-06-15T11:11:51.136Z,6.60
2019-06-15T11:12:54.909Z,6.50
2019-06-15T11:13:59.018Z,6.37
2019-06-15T11:15:02.910Z,5.87
2019-06-15T11:16:06.898Z,5.87
2019-06-15T11:17:10.774Z,6.00
2019-06-15T11:18:15.002Z,6.33
2019-06-15T11:19:18.773Z,6.30
2019-06-15T11:20:22.844Z,6.27
2019-06-15T11:21:26.587Z,6.10
2019-06-15T11:22:30.548Z,6.17
2019-06-15T11:23:34.307Z,6.30
2019-06-15T11:24:38.260Z,6.70
2019-06-15T11:25:42.080Z,6.80
2019-06-15T11:26:46.473Z,6.73
2019-06-15T11:27:50.234Z,6.70
2019-06-15T11:28:54.188Z,6.33
2019-06-15T11:30:12.558Z,6.87
2019-06-15T11:31:03.662Z,7.40
2019-06-15T11:32:07.488Z,7.97
2019-06-15T11:33:11.520Z,8.07
2019-06-15T11:34:15.288Z,7.40
2019-06-15T11:35:19.313Z,7.57
2019-06-15T11:36:23.136Z,7.27
2019-06-15T11:37:27.091Z,7.10
2019-06-15T11:38:30.891Z,8.40
2019-06-15T11:39:34.841Z,7.97
2019-06-15T11:40:38.666Z,8.23
2019-06-15T11:41:42.634Z,8.00
2019-06-15T11:42:49.556Z,7.70
2019-06-15T11:43:52.034Z,7.47
2019-06-15T11:44:55.927Z,7.70
2019-06-15T11:45:59.897Z,8.10
2019-06-15T11:47:03.666Z,7.47
2019-06-15T11:48:07.620Z,7.07
2019-06-15T11:49:11.448Z,8.40
2019-06-15T11:50:15.434Z,7.40
2019-06-15T11:51:19.191Z,8.47
2019-06-15T11:52:23.143Z,7.33
2019-06-15T11:53:26.975Z,7.90
2019-06-15T11:54:30.988Z,6.83
2019-06-15T11:55:39.506Z,7.80
2019-06-15T11:56:40.466Z,7.63
2019-06-15T11:57:44.222Z,6.90
2019-06-15T11:58:48.226Z,7.50
2019-06-15T11:59:52.041Z,7.87
2019-06-15T12:00:55.938Z,7.57
2019-06-15T12:01:59.717Z,8.63
2019-06-15T12:03:03.691Z,8.70
2019-06-15T12:04:07.503Z,8.10
2019-06-15T12:05:11.471Z,8.90
2019-06-15T12:06:15.244Z,9.73
2019-06-15T12:07:19.304Z,8.63
2019-06-15T12:08:23.067Z,9.80
2019-06-15T12:09:27.045Z,9.87
2019-06-15T12:10:30.812Z,9.30
2019-06-15T12:11:34.814Z,9.70
2019-06-15T12:12:38.588Z,9.47
2019-06-15T12:13:42.541Z,9.00
2019-06-15T12:14:46.339Z,9.23
2019-06-15T12:15:50.294Z,8.10
2019-06-15T12:16:54.072Z,9.10
2019-06-15T12:17:58.018Z,8.23
2019-06-15T12:19:01.782Z,8.37
2019-06-15T12:20:06.712Z,8.73
2019-06-15T12:21:10.475Z,8.37
2019-06-15T12:22:14.427Z,8.70
2019-06-15T12:23:18.250Z,8.03
2019-06-15T12:24:22.213Z,7.73
2019-06-15T12:25:26.151Z,9.37
2019-06-15T12:26:30.110Z,8.00
2019-06-15T12:27:33.913Z,8.50
2019-06-15T12:28:37.923Z,7.73
2019-06-15T12:29:41.755Z,9.00
2019-06-15T12:30:47.669Z,8.40
2019-06-15T12:31:51.215Z,8.17
2019-06-15T12:32:55.175Z,8.43
2019-06-15T12:33:59.132Z,7.93
2019-06-15T12:35:03.157Z,8.07
2019-06-15T12:36:18.654Z,8.13
2019-06-15T12:37:12.694Z,7.40
2019-06-15T12:38:16.520Z,6.70
2019-06-15T12:39:20.575Z,6.87
2019-06-15T12:40:24.339Z,7.20
2019-06-15T12:41:28.300Z,7.10
2019-06-15T12:42:32.055Z,6.97
2019-06-15T12:43:36.039Z,5.70
2019-06-15T12:44:39.801Z,6.30
2019-06-15T12:45:43.824Z,6.10
2019-06-15T12:46:47.592Z,6.60
2019-06-15T12:47:51.548Z,6.40
2019-06-15T12:48:55.337Z,5.73
2019-06-15T12:49:59.296Z,5.90
2019-06-15T12:51:03.106Z,6.30
2019-06-15T12:52:07.051Z,6.33
2019-06-15T12:53:10.881Z,6.40
2019-06-15T12:54:14.834Z,7.80
2019-06-15T12:55:18.595Z,6.60
2019-06-15T12:56:22.562Z,6.87
2019-06-15T12:57:26.332Z,6.63
2019-06-15T12:58:30.325Z,6.67
2019-06-15T12:59:34.098Z,7.37
2019-06-15T13:00:38.584Z,6.40
2019-06-15T13:01:42.351Z,7.67
2019-06-15T13:02:46.308Z,6.47
2019-06-15T13:03:50.120Z,6.30
2019-06-15T13:04:54.081Z,6.90
2019-06-15T13:05:57.835Z,7.63
2019-06-15T13:07:01.818Z,7.10
2019-06-15T13:08:05.654Z,7.50
2019-06-15T13:09:09.714Z,6.37
2019-06-15T13:10:13.939Z,6.07
2019-06-15T13:11:17.915Z,6.90
2019-06-15T13:12:21.683Z,6.80
2019-06-15T13:13:25.670Z,6.30
2019-06-15T13:14:29.432Z,6.50
2019-06-15T13:15:33.501Z,6.80
2019-06-15T13:16:39.692Z,6.10
2019-06-15T13:17:42.823Z,7.10
2019-06-15T13:18:46.637Z,7.27
2019-06-15T13:19:50.624Z,6.80
2019-06-15T13:20:54.386Z,6.47
2019-06-15T13:21:58.360Z,7.07
2019-06-15T13:23:02.164Z,6.30
2019-06-15T13:24:06.168Z,6.87
2019-06-15T13:25:10.285Z,6.47
2019-06-15T13:26:14.299Z,6.70
2019-06-15T13:27:18.074Z,7.00
2019-06-15T13:28:22.062Z,6.70
2019-06-15T13:29:25.873Z,6.67
2019-06-15T13:30:29.775Z,6.40
2019-06-15T13:31:33.612Z,6.33
2019-06-15T13:32:37.616Z,5.63
2019-06-15T13:33:41.363Z,5.37
2019-06-15T13:34:45.315Z,5.40
2019-06-15T13:35:49.145Z,5.83
2019-06-15T13:36:53.109Z,5.33
2019-06-15T13:37:56.898Z,5.60
2019-06-15T13:39:00.869Z,5.20
2019-06-15T13:40:06.769Z,4.90
2019-06-15T13:41:10.767Z,5.30
2019-06-15T13:42:14.537Z,5.10
2019-06-15T13:43:18.514Z,5.50
2019-06-15T13:44:22.276Z,5.10
2019-06-15T13:45:26.238Z,5.10
2019-06-15T13:46:30.055Z,4.50
2019-06-15T13:47:33.993Z,5.37
2019-06-15T13:48:37.757Z,4.50
2019-06-15T13:49:41.741Z,4.93
2019-06-15T13:50:45.514Z,4.40
2019-06-15T13:51:49.497Z,4.60
2019-06-15T13:52:53.258Z,4.87
2019-06-15T13:53:57.243Z,4.17
2019-06-15T13:55:01.078Z,4.20
2019-06-15T13:56:05.032Z,4.33
2019-06-15T13:57:08.792Z,4.13
2019-06-15T13:58:12.746Z,3.93
2019-06-15T13:59:16.544Z,3.70
2019-06-15T14:00:20.682Z,3.50
2019-06-15T14:01:33.659Z,3.73
2019-06-15T14:02:30.077Z,3.07
2019-06-15T14:03:33.853Z,3.10
2019-06-15T14:04:37.798Z,3.10
2019-06-15T14:05:41.939Z,3.33
2019-06-15T14:06:45.915Z,2.90
2019-06-15T14:07:49.676Z,3.23
2019-06-15T14:08:53.673Z,2.90
2019-06-15T14:09:57.432Z,2.70
2019-06-15T14:11:01.382Z,2.90
2019-06-15T14:12:05.181Z,2.87
2019-06-15T14:13:09.141Z,2.70